Noatak, Alaska
Current Conditions -  °F | °C
As of 6:36 AM on Saturday 25 Oct 2014 (Local Time) from PAWN Reporting Station
Overcast Overcast  
Wind Chill: 21°   Ceiling: 1800
Heat Index: 27°   Visibility: 10mi
Dew Point: 23°   Wind: 5mph
Humidity: 86%   Direction: 20°NNE
Pressure: 29.68"   Gusts: NA
Location:  67.56°N, 162.98°W
Report Text: PAWN 251436Z AUTO 02004KT 10SM OVC018 M03/M05 A2968 RMK AO1
Loading
Personal Weather Stations






























Interactive Weather Map
Tropical Storm Tracking
New forecast layout! Learn more

10-Day Weather Forecast

Advertisements
Track Severe Weather on mobile